createdAt,value
2017-03-17T00:00:49.302Z,956.92
2017-03-17T00:01:45.280Z,956.96
2017-03-17T00:02:58.590Z,956.95
2017-03-17T00:03:42.569Z,956.95
2017-03-17T00:04:39.408Z,956.95
2017-03-17T00:05:43.587Z,956.96
2017-03-17T00:06:39.495Z,956.94
2017-03-17T00:07:44.107Z,956.90
2017-03-17T00:08:55.212Z,956.96
2017-03-17T00:10:00.480Z,956.91
2017-03-17T00:10:53.953Z,956.88
2017-03-17T00:11:49.440Z,956.88
2017-03-17T00:12:50.214Z,956.87
2017-03-17T00:13:45.716Z,956.83
2017-03-17T00:14:53.743Z,956.87
2017-03-17T00:15:57.209Z,956.84
2017-03-17T00:16:47.019Z,956.83
2017-03-17T00:17:40.864Z,956.83
2017-03-17T00:18:45.232Z,956.83
2017-03-17T00:19:51.229Z,956.86
2017-03-17T00:20:57.068Z,956.87
2017-03-17T00:21:50.876Z,956.86
2017-03-17T00:22:49.100Z,956.83
2017-03-17T00:23:40.325Z,956.85
2017-03-17T00:25:04.369Z,956.88
2017-03-17T00:25:42.967Z,956.87
2017-03-17T00:26:53.254Z,956.85
2017-03-17T00:27:43.624Z,956.83
2017-03-17T00:28:51.254Z,956.80
2017-03-17T00:29:47.543Z,956.78
2017-03-17T00:30:44.926Z,956.74
2017-03-17T00:31:50.504Z,956.77
2017-03-17T00:32:39.195Z,956.74
2017-03-17T00:33:48.340Z,956.69
2017-03-17T00:34:49.978Z,956.74
2017-03-17T00:35:51.479Z,956.72
2017-03-17T00:36:47.892Z,956.75
2017-03-17T00:37:44.149Z,956.68
2017-03-17T00:38:39.996Z,956.69
2017-03-17T00:39:46.962Z,956.70
2017-03-17T00:40:49.169Z,956.66
2017-03-17T00:41:44.814Z,956.69
2017-03-17T00:42:44.470Z,956.67
2017-03-17T00:43:44.362Z,956.68
2017-03-17T00:44:45.058Z,956.63
2017-03-17T00:45:43.819Z,956.64
2017-03-17T00:46:47.891Z,956.62
2017-03-17T00:47:39.140Z,956.61
2017-03-17T00:48:39.160Z,956.60
2017-03-17T00:49:38.553Z,956.56
2017-03-17T00:50:40.675Z,956.56
2017-03-17T00:51:50.491Z,956.54
2017-03-17T00:52:45.417Z,956.52
2017-03-17T00:53:44.279Z,956.54
2017-03-17T00:54:40.539Z,956.51
2017-03-17T00:55:48.205Z,956.52
2017-03-17T00:56:48.499Z,956.47
2017-03-17T00:57:48.221Z,956.50
2017-03-17T00:58:39.168Z,956.48
2017-03-17T00:59:48.301Z,956.45
2017-03-17T01:00:47.120Z,956.45
2017-03-17T01:01:45.233Z,956.43
2017-03-17T01:02:50.041Z,956.44
2017-03-17T01:03:40.671Z,956.44
2017-03-17T01:04:54.831Z,956.45
2017-03-17T01:05:49.329Z,956.42
2017-03-17T01:06:39.294Z,956.41
2017-03-17T01:07:52.887Z,956.44
2017-03-17T01:08:52.757Z,956.45
2017-03-17T01:09:34.336Z,956.50
2017-03-17T01:10:54.760Z,956.47
2017-03-17T01:11:44.273Z,956.43
2017-03-17T01:13:07.704Z,956.45
2017-03-17T01:14:02.778Z,956.43
2017-03-17T01:14:50.202Z,956.40
2017-03-17T01:15:49.169Z,956.41
2017-03-17T01:16:44.982Z,956.38
2017-03-17T01:17:49.594Z,956.33
2017-03-17T01:18:58.486Z,956.32
2017-03-17T01:19:47.138Z,956.27
2017-03-17T01:20:44.522Z,956.24
2017-03-17T01:21:50.466Z,956.19
2017-03-17T01:22:49.793Z,956.19
2017-03-17T01:23:54.936Z,956.23
2017-03-17T01:24:38.494Z,956.19
2017-03-17T01:25:51.064Z,956.17
2017-03-17T01:26:48.643Z,956.15
2017-03-17T01:27:55.050Z,956.12
2017-03-17T01:28:54.055Z,956.07
2017-03-17T01:29:40.617Z,956.09
2017-03-17T01:30:38.990Z,956.04
2017-03-17T01:31:44.565Z,956.08
2017-03-17T01:32:38.802Z,956.07
2017-03-17T01:33:45.942Z,956.07
2017-03-17T01:34:54.141Z,956.06
2017-03-17T01:35:53.454Z,956.05
2017-03-17T01:36:44.087Z,956.01
2017-03-17T01:37:52.804Z,956.03
2017-03-17T01:38:43.700Z,955.98
2017-03-17T01:39:43.969Z,955.94
2017-03-17T01:40:46.088Z,955.98
2017-03-17T01:41:43.735Z,955.99
2017-03-17T01:42:57.230Z,955.95
2017-03-17T01:43:53.506Z,955.99
2017-03-17T01:44:57.654Z,955.97
2017-03-17T01:45:46.819Z,955.94
2017-03-17T01:46:45.623Z,955.93
2017-03-17T01:47:55.941Z,955.91
2017-03-17T01:48:44.884Z,955.91
2017-03-17T01:49:49.684Z,955.90
2017-03-17T01:50:53.495Z,955.84
2017-03-17T01:51:49.420Z,955.84
2017-03-17T01:52:45.745Z,955.82
2017-03-17T01:53:38.356Z,955.83
2017-03-17T01:54:40.384Z,955.80
2017-03-17T01:55:39.953Z,955.76
2017-03-17T01:56:54.697Z,955.75
2017-03-17T01:57:48.235Z,955.77
2017-03-17T01:58:49.061Z,955.73
2017-03-17T01:59:45.891Z,955.76
2017-03-17T02:00:50.462Z,955.74
2017-03-17T02:01:49.355Z,955.72
2017-03-17T02:02:53.408Z,955.72
2017-03-17T02:03:44.730Z,955.70
2017-03-17T02:04:53.728Z,955.70
2017-03-17T02:05:47.841Z,955.73
2017-03-17T02:06:39.821Z,955.70
2017-03-17T02:07:53.988Z,955.74
2017-03-17T02:08:50.255Z,955.72
2017-03-17T02:09:45.411Z,955.62
2017-03-17T02:10:44.326Z,955.67
2017-03-17T02:11:45.235Z,955.63
2017-03-17T02:12:44.237Z,955.60
2017-03-17T02:13:50.421Z,955.62
2017-03-17T02:14:48.512Z,955.56
2017-03-17T02:15:48.523Z,955.60
2017-03-17T02:16:47.987Z,955.57
2017-03-17T02:17:45.685Z,955.57
2017-03-17T02:18:44.850Z,955.51
2017-03-17T02:19:50.070Z,955.53
2017-03-17T02:20:38.626Z,955.47
2017-03-17T02:21:38.519Z,955.50
2017-03-17T02:22:44.417Z,955.50
2017-03-17T02:23:53.498Z,955.53
2017-03-17T02:24:47.089Z,955.48
2017-03-17T02:25:57.175Z,955.48
2017-03-17T02:26:50.861Z,955.51
2017-03-17T02:27:45.011Z,955.49
2017-03-17T02:28:44.424Z,955.49
2017-03-17T02:29:50.104Z,955.53
2017-03-17T02:30:44.319Z,955.46
2017-03-17T02:31:53.675Z,955.49
2017-03-17T02:32:41.995Z,955.53
2017-03-17T02:33:54.825Z,955.52
2017-03-17T02:34:49.155Z,955.51
2017-03-17T02:35:44.474Z,955.49
2017-03-17T02:36:44.188Z,955.47
2017-03-17T02:37:37.389Z,955.46
2017-03-17T02:38:48.222Z,955.46
2017-03-17T02:39:35.817Z,955.44
2017-03-17T02:40:44.951Z,955.46
2017-03-17T02:41:47.228Z,955.44
2017-03-17T02:42:44.217Z,955.40
2017-03-17T02:43:44.445Z,955.44
2017-03-17T02:44:49.749Z,955.42
2017-03-17T02:45:58.402Z,955.43
2017-03-17T02:46:47.861Z,955.41
2017-03-17T02:47:46.383Z,955.39
2017-03-17T02:48:44.490Z,955.38
2017-03-17T02:49:44.108Z,955.39
2017-03-17T02:50:40.121Z,955.34
2017-03-17T02:51:44.222Z,955.36
2017-03-17T02:52:44.917Z,955.34
2017-03-17T02:53:40.086Z,955.31
2017-03-17T02:54:45.307Z,955.34
2017-03-17T02:55:45.059Z,955.29
2017-03-17T02:56:45.926Z,955.31
2017-03-17T02:57:39.292Z,955.27
2017-03-17T02:58:41.823Z,955.27
2017-03-17T02:59:48.478Z,955.26
2017-03-17T03:00:38.474Z,955.31
2017-03-17T03:01:40.024Z,955.27
2017-03-17T03:02:57.656Z,955.29
2017-03-17T03:03:41.518Z,955.24
2017-03-17T03:04:45.109Z,955.28
2017-03-17T03:05:45.300Z,955.26
2017-03-17T03:06:44.397Z,955.26
2017-03-17T03:07:48.445Z,955.32
2017-03-17T03:08:44.396Z,955.30
2017-03-17T03:09:37.168Z,955.27
2017-03-17T03:10:51.287Z,955.28
2017-03-17T03:11:57.023Z,955.30
2017-03-17T03:12:53.229Z,955.29
2017-03-17T03:13:47.682Z,955.26
2017-03-17T03:14:54.121Z,955.23
2017-03-17T03:15:45.378Z,955.28
2017-03-17T03:16:40.134Z,955.27
2017-03-17T03:17:49.182Z,955.24
2017-03-17T03:18:40.516Z,955.23
2017-03-17T03:19:45.199Z,955.22
2017-03-17T03:20:47.703Z,955.27
2017-03-17T03:21:51.174Z,955.22
2017-03-17T03:22:37.654Z,955.25
2017-03-17T03:23:54.213Z,955.24
2017-03-17T03:24:53.696Z,955.23
2017-03-17T03:25:39.050Z,955.25
2017-03-17T03:26:50.145Z,955.24
2017-03-17T03:27:39.382Z,955.28
2017-03-17T03:28:49.960Z,955.29
2017-03-17T03:29:48.439Z,955.25
2017-03-17T03:30:44.692Z,955.27
2017-03-17T03:31:38.633Z,955.26
2017-03-17T03:32:38.675Z,955.23
2017-03-17T03:33:47.861Z,955.24
2017-03-17T03:34:32.429Z,955.20
2017-03-17T03:35:36.592Z,955.22
2017-03-17T03:36:44.689Z,955.21
2017-03-17T03:37:39.986Z,955.20
2017-03-17T03:38:40.866Z,955.20
2017-03-17T03:39:49.784Z,955.17
2017-03-17T03:40:39.915Z,955.14
2017-03-17T03:41:49.827Z,955.11
2017-03-17T03:42:54.362Z,955.11
2017-03-17T03:43:43.724Z,955.10
2017-03-17T03:44:47.910Z,955.15
2017-03-17T03:45:44.082Z,955.16
2017-03-17T03:46:44.395Z,955.16
2017-03-17T03:47:39.830Z,955.16
2017-03-17T03:48:40.580Z,955.18
2017-03-17T03:49:40.012Z,955.18
2017-03-17T03:50:45.658Z,955.16
2017-03-17T03:51:52.679Z,955.17
2017-03-17T03:52:48.037Z,955.17
2017-03-17T03:53:44.217Z,955.16
2017-03-17T03:54:51.829Z,955.11
2017-03-17T03:55:49.437Z,955.18
2017-03-17T03:56:52.701Z,955.14
2017-03-17T03:57:47.376Z,955.13
2017-03-17T03:58:44.941Z,955.17
2017-03-17T03:59:53.822Z,955.15
2017-03-17T04:00:48.171Z,955.19
2017-03-17T04:01:39.065Z,955.18
2017-03-17T04:02:50.158Z,955.16
2017-03-17T04:03:44.245Z,955.11
2017-03-17T04:04:44.797Z,955.08
2017-03-17T04:05:47.556Z,955.08
2017-03-17T04:06:47.771Z,954.99
2017-03-17T04:07:39.122Z,955.01
2017-03-17T04:08:38.643Z,955.00
2017-03-17T04:09:43.997Z,954.99
2017-03-17T04:10:40.804Z,954.98
2017-03-17T04:11:48.773Z,954.94
2017-03-17T04:12:55.626Z,955.00
2017-03-17T04:13:45.536Z,954.98
2017-03-17T04:14:52.713Z,954.99
2017-03-17T04:15:45.736Z,955.03
2017-03-17T04:16:54.259Z,954.99
2017-03-17T04:17:39.103Z,955.00
2017-03-17T04:18:48.615Z,954.99
2017-03-17T04:19:44.143Z,954.94
2017-03-17T04:20:42.695Z,954.93
2017-03-17T04:21:39.971Z,954.92
2017-03-17T04:22:44.971Z,954.90
2017-03-17T04:23:52.752Z,954.84
2017-03-17T04:24:45.183Z,954.84
2017-03-17T04:25:39.100Z,954.83
2017-03-17T04:26:44.205Z,954.86
2017-03-17T04:27:49.172Z,954.80
2017-03-17T04:28:40.006Z,954.82
2017-03-17T04:29:50.241Z,954.78
2017-03-17T04:30:44.940Z,954.77
2017-03-17T04:31:38.679Z,954.75
2017-03-17T04:32:53.980Z,954.77
2017-03-17T04:33:45.663Z,954.78
2017-03-17T04:34:40.485Z,954.77
2017-03-17T04:35:53.510Z,954.74
2017-03-17T04:36:40.533Z,954.75
2017-03-17T04:37:56.801Z,954.76
2017-03-17T04:38:46.126Z,954.76
2017-03-17T04:39:45.513Z,954.74
2017-03-17T04:40:51.209Z,954.75
2017-03-17T04:41:38.353Z,954.81
2017-03-17T04:42:53.173Z,954.78
2017-03-17T04:43:40.053Z,954.79
2017-03-17T04:44:45.768Z,954.83
2017-03-17T04:45:44.247Z,954.84
2017-03-17T04:46:34.582Z,954.86
2017-03-17T04:47:39.541Z,954.90
2017-03-17T04:48:44.310Z,954.87
2017-03-17T04:49:40.202Z,954.87
2017-03-17T04:50:45.176Z,954.86
2017-03-17T04:51:53.509Z,954.86
2017-03-17T04:52:46.727Z,954.85
2017-03-17T04:53:44.611Z,954.83
2017-03-17T04:54:45.156Z,954.85
2017-03-17T04:55:40.156Z,954.85
2017-03-17T04:56:37.484Z,954.82
2017-03-17T04:57:44.983Z,954.82
2017-03-17T04:58:45.805Z,954.78
2017-03-17T04:59:40.962Z,954.76
2017-03-17T05:00:53.343Z,954.78
2017-03-17T05:02:00.168Z,954.81
2017-03-17T05:02:53.405Z,954.79
2017-03-17T05:03:46.053Z,954.75
2017-03-17T05:04:48.335Z,954.70
2017-03-17T05:05:44.703Z,954.69
2017-03-17T05:06:39.717Z,954.69
2017-03-17T05:07:45.486Z,954.68
2017-03-17T05:08:49.966Z,954.64
2017-03-17T05:09:45.919Z,954.67
2017-03-17T05:10:40.158Z,954.64
2017-03-17T05:11:40.007Z,954.67
2017-03-17T05:12:35.856Z,954.68
2017-03-17T05:13:39.964Z,954.66
2017-03-17T05:14:54.645Z,954.65
2017-03-17T05:15:43.743Z,954.62
2017-03-17T05:16:49.403Z,954.65
2017-03-17T05:17:48.899Z,954.68
2017-03-17T05:18:44.507Z,954.64
2017-03-17T05:19:49.716Z,954.64
2017-03-17T05:20:45.188Z,954.66
2017-03-17T05:21:44.255Z,954.67
2017-03-17T05:22:40.023Z,954.65
2017-03-17T05:23:44.738Z,954.68
2017-03-17T05:24:54.386Z,954.65
2017-03-17T05:25:47.340Z,954.64
2017-03-17T05:26:44.298Z,954.63
2017-03-17T05:27:39.118Z,954.63
2017-03-17T05:28:55.146Z,954.64
2017-03-17T05:29:48.941Z,954.65
2017-03-17T05:30:58.386Z,954.62
2017-03-17T05:31:36.221Z,954.63
2017-03-17T05:32:39.524Z,954.58
2017-03-17T05:33:38.659Z,954.62
2017-03-17T05:34:34.562Z,954.58
2017-03-17T05:35:49.547Z,954.63
2017-03-17T05:36:44.280Z,954.67
2017-03-17T05:37:48.124Z,954.67
2017-03-17T05:38:47.309Z,954.70
2017-03-17T05:39:48.697Z,954.68
2017-03-17T05:40:40.063Z,954.73
2017-03-17T05:41:44.521Z,954.72
2017-03-17T05:42:54.697Z,954.71
2017-03-17T05:43:38.834Z,954.72
2017-03-17T05:44:46.470Z,954.74
2017-03-17T05:45:47.521Z,954.74
2017-03-17T05:46:39.191Z,954.70
2017-03-17T05:47:35.969Z,954.70
2017-03-17T05:48:51.632Z,954.69
2017-03-17T05:49:31.293Z,954.64
2017-03-17T05:50:38.033Z,954.68
2017-03-17T05:51:51.139Z,954.69
2017-03-17T05:52:54.000Z,954.64
2017-03-17T05:53:46.607Z,954.64
2017-03-17T05:54:38.455Z,954.60
2017-03-17T05:55:44.348Z,954.64
2017-03-17T05:56:51.362Z,954.61
2017-03-17T05:57:52.812Z,954.60
2017-03-17T05:58:46.496Z,954.63
2017-03-17T05:59:38.838Z,954.62
2017-03-17T06:00:44.797Z,954.63
2017-03-17T06:01:44.253Z,954.62
2017-03-17T06:02:44.572Z,954.64
2017-03-17T06:03:44.799Z,954.65
2017-03-17T06:04:54.724Z,954.61
2017-03-17T06:05:48.829Z,954.65
2017-03-17T06:06:28.247Z,954.64
2017-03-17T06:07:38.351Z,954.62
2017-03-17T06:08:39.411Z,954.54
2017-03-17T06:09:56.001Z,954.55
2017-03-17T06:10:44.760Z,954.56
2017-03-17T06:11:33.092Z,954.54
2017-03-17T06:12:50.100Z,954.53
2017-03-17T06:13:40.288Z,954.49
2017-03-17T06:14:49.144Z,954.49
2017-03-17T06:15:38.898Z,954.53
2017-03-17T06:16:45.238Z,954.48
2017-03-17T06:17:25.923Z,954.47
2017-03-17T06:18:44.288Z,954.56
2017-03-17T06:19:40.213Z,954.54
2017-03-17T06:20:44.922Z,954.55
2017-03-17T06:21:43.773Z,954.57
2017-03-17T06:22:32.663Z,954.56
2017-03-17T06:23:49.125Z,954.62
2017-03-17T06:24:40.748Z,954.57
2017-03-17T06:25:42.790Z,954.57
2017-03-17T06:26:49.338Z,954.58
2017-03-17T06:27:46.466Z,954.61
2017-03-17T06:28:35.027Z,954.63
2017-03-17T06:29:53.612Z,954.61
2017-03-17T06:30:38.255Z,954.57
2017-03-17T06:31:47.076Z,954.56
2017-03-17T06:32:47.177Z,954.63
2017-03-17T06:33:37.493Z,954.57
2017-03-17T06:34:54.044Z,954.56
2017-03-17T06:35:40.279Z,954.61
2017-03-17T06:36:49.453Z,954.58
2017-03-17T06:37:59.443Z,954.61
2017-03-17T06:38:53.774Z,954.57
2017-03-17T06:39:49.501Z,954.54
2017-03-17T06:40:45.516Z,954.58
2017-03-17T06:41:40.434Z,954.53
2017-03-17T06:42:40.029Z,954.53
2017-03-17T06:43:36.364Z,954.56
2017-03-17T06:44:53.322Z,954.54
2017-03-17T06:45:38.711Z,954.51
2017-03-17T06:46:38.924Z,954.56
2017-03-17T06:47:44.445Z,954.53
2017-03-17T06:48:45.504Z,954.57
2017-03-17T06:49:47.031Z,954.54
2017-03-17T06:50:40.445Z,954.53
2017-03-17T06:51:40.796Z,954.53
2017-03-17T06:52:53.806Z,954.57
2017-03-17T06:53:50.270Z,954.53
2017-03-17T06:54:38.618Z,954.59
2017-03-17T06:55:48.270Z,954.55
2017-03-17T06:56:38.736Z,954.60
2017-03-17T06:57:55.133Z,954.56
2017-03-17T06:58:46.061Z,954.61
2017-03-17T06:59:45.467Z,954.58
2017-03-17T07:00:48.401Z,954.60
2017-03-17T07:01:54.686Z,954.61
2017-03-17T07:02:38.507Z,954.60
2017-03-17T07:03:33.605Z,954.58
2017-03-17T07:04:44.595Z,954.63
2017-03-17T07:05:37.718Z,954.60
2017-03-17T07:06:47.113Z,954.59
2017-03-17T07:07:47.152Z,954.64
2017-03-17T07:08:48.524Z,954.62
2017-03-17T07:09:38.939Z,954.64
2017-03-17T07:10:31.629Z,954.61
2017-03-17T07:11:40.246Z,954.62
2017-03-17T07:12:38.711Z,954.64
2017-03-17T07:13:41.851Z,954.63
2017-03-17T07:14:39.340Z,954.60
2017-03-17T07:15:46.590Z,954.63
2017-03-17T07:16:37.634Z,954.62
2017-03-17T07:17:39.396Z,954.60
2017-03-17T07:18:36.040Z,954.61
2017-03-17T07:19:48.007Z,954.65
2017-03-17T07:20:54.838Z,954.58
2017-03-17T07:21:43.953Z,954.60
2017-03-17T07:22:46.227Z,954.59
2017-03-17T07:23:52.874Z,954.55
2017-03-17T07:24:50.287Z,954.60
2017-03-17T07:25:44.451Z,954.56
2017-03-17T07:26:58.893Z,954.55
2017-03-17T07:27:38.611Z,954.54
2017-03-17T07:28:53.864Z,954.56
2017-03-17T07:30:38.458Z,954.52
2017-03-17T07:31:44.329Z,954.50
2017-03-17T07:32:44.346Z,954.53
2017-03-17T07:33:38.829Z,954.50
2017-03-17T07:34:45.029Z,954.51
2017-03-17T07:35:39.301Z,954.51
2017-03-17T07:36:34.752Z,954.43
2017-03-17T07:37:44.131Z,954.49
2017-03-17T07:38:45.367Z,954.47
2017-03-17T07:39:54.259Z,954.48
2017-03-17T07:40:33.146Z,954.49
2017-03-17T07:41:34.835Z,954.51
2017-03-17T07:42:48.685Z,954.51
2017-03-17T07:43:40.037Z,954.48
2017-03-17T07:44:44.620Z,954.50
2017-03-17T07:45:46.368Z,954.50
2017-03-17T07:46:56.877Z,954.48
2017-03-17T07:47:45.430Z,954.48
2017-03-17T07:48:45.643Z,954.49
2017-03-17T07:49:48.652Z,954.46
2017-03-17T07:50:43.330Z,954.50
2017-03-17T07:51:44.220Z,954.47
2017-03-17T07:52:37.264Z,954.44
2017-03-17T07:53:53.904Z,954.46
2017-03-17T07:54:49.465Z,954.45
2017-03-17T07:55:53.494Z,954.41
2017-03-17T07:56:51.304Z,954.47
2017-03-17T07:57:47.087Z,954.46
2017-03-17T07:58:40.124Z,954.47
2017-03-17T07:59:52.866Z,954.47
2017-03-17T08:00:42.978Z,954.49
2017-03-17T08:01:39.353Z,954.48
2017-03-17T08:02:37.756Z,954.47
2017-03-17T08:03:37.765Z,954.44
2017-03-17T08:04:37.156Z,954.43
2017-03-17T08:05:27.676Z,954.46
2017-03-17T08:06:32.569Z,954.41
2017-03-17T08:07:47.380Z,954.39
2017-03-17T08:08:39.662Z,954.40
2017-03-17T08:09:39.544Z,954.42
2017-03-17T08:10:38.271Z,954.37
2017-03-17T08:11:47.421Z,954.44
2017-03-17T08:12:44.257Z,954.34
2017-03-17T08:13:42.916Z,954.35
2017-03-17T08:14:49.114Z,954.31
2017-03-17T08:15:32.873Z,954.35
2017-03-17T08:16:38.590Z,954.29
2017-03-17T08:17:27.681Z,954.31
2017-03-17T08:18:44.297Z,954.30
2017-03-17T08:19:38.974Z,954.35
2017-03-17T08:20:39.292Z,954.31
2017-03-17T08:21:56.099Z,954.36
2017-03-17T08:22:46.999Z,954.29
2017-03-17T08:23:51.744Z,954.31
2017-03-17T08:24:42.955Z,954.34
2017-03-17T08:25:43.557Z,954.31
2017-03-17T08:26:38.603Z,954.25
2017-03-17T08:27:53.733Z,954.27
2017-03-17T08:28:57.156Z,954.33
2017-03-17T08:29:50.314Z,954.36
2017-03-17T08:30:49.006Z,954.35
2017-03-17T08:31:50.153Z,954.34
2017-03-17T08:32:39.541Z,954.30
2017-03-17T08:33:34.715Z,954.30
2017-03-17T08:34:49.308Z,954.29
2017-03-17T08:35:39.843Z,954.25
2017-03-17T08:36:28.911Z,954.37
2017-03-17T08:37:13.197Z,954.27
2017-03-17T08:38:46.048Z,954.33
2017-03-17T08:39:39.609Z,954.27
2017-03-17T08:40:49.293Z,954.26
2017-03-17T08:41:49.244Z,954.28
2017-03-17T08:42:55.733Z,954.29
2017-03-17T08:43:39.439Z,954.25
2017-03-17T08:44:44.323Z,954.31
2017-03-17T08:45:43.320Z,954.30
2017-03-17T08:46:42.773Z,954.25
2017-03-17T08:47:38.610Z,954.29
2017-03-17T08:48:47.993Z,954.31
2017-03-17T08:49:43.239Z,954.28
2017-03-17T08:50:38.897Z,954.44
2017-03-17T08:51:48.656Z,954.39
2017-03-17T08:52:44.589Z,954.31
2017-03-17T08:53:45.024Z,954.38
2017-03-17T08:54:45.943Z,954.38
2017-03-17T08:55:46.071Z,954.34
2017-03-17T08:56:45.860Z,954.36
2017-03-17T08:57:55.708Z,954.39
2017-03-17T08:58:38.337Z,954.37
2017-03-17T08:59:48.436Z,954.34
2017-03-17T09:00:47.179Z,954.39
2017-03-17T09:01:38.583Z,954.34
2017-03-17T09:02:33.492Z,954.38
2017-03-17T09:03:39.208Z,954.31
2017-03-17T09:04:40.488Z,954.36
2017-03-17T09:05:38.853Z,954.32
2017-03-17T09:06:53.451Z,954.27
2017-03-17T09:07:48.862Z,954.27
2017-03-17T09:08:50.116Z,954.28
2017-03-17T09:09:50.786Z,954.27
2017-03-17T09:10:45.973Z,954.32
2017-03-17T09:11:52.925Z,954.30
2017-03-17T09:12:38.442Z,954.30
2017-03-17T09:13:54.885Z,954.31
2017-03-17T09:14:58.362Z,954.23
2017-03-17T09:15:48.115Z,954.24
2017-03-17T09:16:40.353Z,954.20
2017-03-17T09:17:55.708Z,954.20
2017-03-17T09:18:44.909Z,954.24
2017-03-17T09:19:56.697Z,954.15
2017-03-17T09:20:39.532Z,954.17
2017-03-17T09:21:36.645Z,954.15
2017-03-17T09:22:42.930Z,954.13
2017-03-17T09:23:37.705Z,954.15
2017-03-17T09:24:48.501Z,954.11
2017-03-17T09:25:44.722Z,954.11
2017-03-17T09:26:39.223Z,954.12
2017-03-17T09:27:36.814Z,954.08
2017-03-17T09:28:49.175Z,954.11
2017-03-17T09:29:34.305Z,954.07
2017-03-17T09:30:50.933Z,954.07
2017-03-17T09:31:51.588Z,954.14
2017-03-17T09:32:37.266Z,954.12
2017-03-17T09:33:53.284Z,954.04
2017-03-17T09:34:44.376Z,954.06
2017-03-17T09:35:54.211Z,954.02
2017-03-17T09:36:47.869Z,954.12
2017-03-17T09:37:54.379Z,954.02
2017-03-17T09:38:31.438Z,954.11
2017-03-17T09:39:39.653Z,954.07
2017-03-17T09:40:39.955Z,954.04
2017-03-17T09:41:39.892Z,954.04
2017-03-17T09:42:50.405Z,954.02
2017-03-17T09:43:54.758Z,954.06
2017-03-17T09:44:54.189Z,954.04
2017-03-17T09:45:48.111Z,953.96
2017-03-17T09:46:39.898Z,953.97
2017-03-17T09:47:48.585Z,953.94
2017-03-17T09:48:40.856Z,953.90
2017-03-17T09:49:44.722Z,953.92
2017-03-17T09:50:49.376Z,953.88
2017-03-17T09:51:33.315Z,953.85
2017-03-17T09:52:53.514Z,953.85
2017-03-17T09:53:34.695Z,953.87
2017-03-17T09:54:42.887Z,953.80
2017-03-17T09:55:38.546Z,953.79
2017-03-17T09:56:54.436Z,953.81
2017-03-17T09:57:33.511Z,953.80
2017-03-17T09:58:41.004Z,953.80
2017-03-17T09:59:55.178Z,953.73
2017-03-17T10:00:38.201Z,953.80
2017-03-17T10:01:50.273Z,953.78
2017-03-17T10:02:39.284Z,953.84
2017-03-17T10:03:40.363Z,953.77
2017-03-17T10:04:44.671Z,953.82
2017-03-17T10:05:52.447Z,953.76
2017-03-17T10:06:47.093Z,953.74
2017-03-17T10:07:32.584Z,953.81
2017-03-17T10:08:40.537Z,953.74
2017-03-17T10:09:40.305Z,953.73
2017-03-17T10:10:31.796Z,953.70
2017-03-17T10:11:48.690Z,953.73
2017-03-17T10:12:45.054Z,953.69
2017-03-17T10:13:45.896Z,953.66
2017-03-17T10:14:45.045Z,953.64
2017-03-17T10:15:41.019Z,953.63
2017-03-17T10:16:55.414Z,953.65
2017-03-17T10:17:48.772Z,953.62
2017-03-17T10:18:56.058Z,953.67
2017-03-17T10:19:48.330Z,953.68
2017-03-17T10:20:48.858Z,953.65
2017-03-17T10:21:44.932Z,953.65
2017-03-17T10:22:49.997Z,953.57
2017-03-17T10:23:41.427Z,953.61
2017-03-17T10:24:39.811Z,953.58
2017-03-17T10:25:39.829Z,953.58
2017-03-17T10:26:53.841Z,953.51
2017-03-17T10:27:40.192Z,953.56
2017-03-17T10:28:38.070Z,953.59
2017-03-17T10:29:39.116Z,953.51
2017-03-17T10:30:37.160Z,953.52
2017-03-17T10:31:40.153Z,953.56
2017-03-17T10:32:45.085Z,953.44
2017-03-17T10:33:45.622Z,953.44
2017-03-17T10:34:40.426Z,953.41
2017-03-17T10:35:40.228Z,953.40
2017-03-17T10:36:49.446Z,953.42
2017-03-17T10:37:39.860Z,953.40
2017-03-17T10:38:50.056Z,953.42
2017-03-17T10:39:37.187Z,953.47
2017-03-17T10:40:58.241Z,953.37
2017-03-17T10:41:51.692Z,953.34
2017-03-17T10:42:33.439Z,953.43
2017-03-17T10:43:45.956Z,953.34
2017-03-17T10:44:40.450Z,953.31
2017-03-17T10:45:48.664Z,953.32
2017-03-17T10:46:57.184Z,953.29
2017-03-17T10:47:47.813Z,953.24
2017-03-17T10:48:44.637Z,953.29
2017-03-17T10:49:38.440Z,953.26
2017-03-17T10:50:43.423Z,953.15
2017-03-17T10:51:44.256Z,953.17
2017-03-17T10:52:32.925Z,953.25
2017-03-17T10:53:43.775Z,953.11
2017-03-17T10:54:44.620Z,953.09
2017-03-17T10:55:40.640Z,953.26
2017-03-17T10:56:44.742Z,953.10
2017-03-17T10:57:34.329Z,953.06
2017-03-17T10:58:43.706Z,953.02
2017-03-17T10:59:54.360Z,953.04
2017-03-17T11:00:44.611Z,953.00
2017-03-17T11:01:48.464Z,953.04
2017-03-17T11:02:47.716Z,952.99
2017-03-17T11:03:45.150Z,952.94
2017-03-17T11:04:47.767Z,952.93
2017-03-17T11:05:52.863Z,952.97
2017-03-17T11:06:41.114Z,953.00
2017-03-17T11:07:50.078Z,953.03
2017-03-17T11:08:40.691Z,953.00
2017-03-17T11:09:39.754Z,952.95
2017-03-17T11:10:39.953Z,952.94
2017-03-17T11:11:45.175Z,952.92
2017-03-17T11:12:38.516Z,952.91
2017-03-17T11:13:53.953Z,952.93
2017-03-17T11:14:51.511Z,952.95
2017-03-17T11:15:46.574Z,952.96
2017-03-17T11:16:39.307Z,952.87
2017-03-17T11:17:49.138Z,952.92
2017-03-17T11:18:40.666Z,952.89
2017-03-17T11:19:46.938Z,952.91
2017-03-17T11:20:44.810Z,952.99
2017-03-17T11:21:52.730Z,952.90
2017-03-17T11:22:40.020Z,952.85
2017-03-17T11:23:44.062Z,952.78
2017-03-17T11:24:39.149Z,952.79
2017-03-17T11:25:39.974Z,952.75
2017-03-17T11:26:38.962Z,952.72
2017-03-17T11:27:44.531Z,952.76
2017-03-17T11:28:45.380Z,952.65
2017-03-17T11:29:45.852Z,952.72
2017-03-17T11:30:44.364Z,952.71
2017-03-17T11:31:44.413Z,952.78
2017-03-17T11:33:05.049Z,952.75
2017-03-17T11:33:49.659Z,952.73
2017-03-17T11:34:40.303Z,952.69
2017-03-17T11:35:43.054Z,952.62
2017-03-17T11:36:38.345Z,952.66
2017-03-17T11:37:42.704Z,952.68
2017-03-17T11:38:43.004Z,952.56
2017-03-17T11:39:53.942Z,952.62
2017-03-17T11:40:43.501Z,952.59
2017-03-17T11:41:44.879Z,952.55
2017-03-17T11:42:36.949Z,952.54
2017-03-17T11:43:39.975Z,952.51
2017-03-17T11:44:46.857Z,952.47
2017-03-17T11:45:45.518Z,952.51
2017-03-17T11:46:46.761Z,952.46
2017-03-17T11:47:46.098Z,952.43
2017-03-17T11:48:45.176Z,952.51
2017-03-17T11:49:45.167Z,952.44
2017-03-17T11:50:33.002Z,952.46
2017-03-17T11:51:44.766Z,952.45
2017-03-17T11:52:40.683Z,952.43
2017-03-17T11:53:49.126Z,952.44
2017-03-17T11:54:45.165Z,952.47
2017-03-17T11:55:50.764Z,952.39
2017-03-17T11:56:40.114Z,952.41
2017-03-17T11:57:35.884Z,952.47
2017-03-17T11:58:54.541Z,952.43
2017-03-17T11:59:45.877Z,952.36
2017-03-17T12:00:55.325Z,952.40
2017-03-17T12:01:44.916Z,952.30
2017-03-17T12:02:40.111Z,952.31
2017-03-17T12:03:49.408Z,952.36
2017-03-17T12:04:44.463Z,952.21
2017-03-17T12:05:39.359Z,952.23
2017-03-17T12:06:39.691Z,952.27
2017-03-17T12:07:51.877Z,952.36
2017-03-17T12:08:53.898Z,952.15
2017-03-17T12:09:45.062Z,952.14
2017-03-17T12:10:47.892Z,952.17
2017-03-17T12:11:39.123Z,952.06
2017-03-17T12:12:38.842Z,952.10
2017-03-17T12:13:40.239Z,952.12
2017-03-17T12:14:54.049Z,952.04
2017-03-17T12:15:45.644Z,951.90
2017-03-17T12:16:46.416Z,952.02
2017-03-17T12:17:39.353Z,951.98
2017-03-17T12:18:36.269Z,952.06
2017-03-17T12:19:39.394Z,951.99
2017-03-17T12:20:49.931Z,952.14
2017-03-17T12:21:50.790Z,951.93
2017-03-17T12:22:56.120Z,952.03
2017-03-17T12:23:45.248Z,951.99
2017-03-17T12:24:39.866Z,952.02
2017-03-17T12:25:46.771Z,951.93
2017-03-17T12:26:48.054Z,951.89
2017-03-17T12:27:48.414Z,951.94
2017-03-17T12:28:45.206Z,951.87
2017-03-17T12:29:43.151Z,951.91